CheckWX is a tool to help pilots better visualize weather data.  It is not intended as a substitute for an official pre-flight weather briefing.

02:14:19 UTC

LFOB METAR
Paris Beauvais Tillé Airport
Beauvais/Tillé, France
Current

44 mins ago

LFOB 120130Z AUTO 32005KT 9999 3600 NSC 08/07 Q1027 NOSIG
Observed
Jul-12 @ 01:30 UTC
Wind
  • 320° at 5 KTS
Visibility
10,000+ meters
Flight Rules
VFR
Cloud Levels
  • Clear skies
Temperature
C / 46°F
Dewpoint
C / 45°F
Humidity
93%
Altimeter
30.32" Hg
Pressure
1026.92 hPa
Previous

1 hour ago

LFOB 120100Z AUTO 31006KT 9999 3800 NSC 08/08 Q1027 NOSIG
Observed
Jul-12 @ 01:00 UTC
Wind
  • 310° at 6 KTS
Visibility
10,000+ meters
Flight Rules
VFR
Cloud Levels
  • Clear skies
Temperature
C / 46°F
Dewpoint
C / 46°F
Humidity
100%
Altimeter
30.32" Hg
Pressure
1026.92 hPa
Previous

2 hours ago

LFOB 120030Z AUTO 31006KT CAVOK 09/07 Q1027 NOSIG
Observed
Jul-12 @ 00:30 UTC
Wind
  • 310° at 6 KTS
Visibility
10,000+ meters
Flight Rules
VFR
Cloud Levels
  • Clear skies
Temperature
C / 48°F
Dewpoint
C / 45°F
Humidity
87%
Altimeter
30.32" Hg
Pressure
1026.92 hPa